NORTHERN NASSAU  -  Coastal Flood Statement Coastal Flood Statement        SOUTHERN NASSAU  -  Coastal Flood Statement Coastal Flood Statement      

Active alerts

Northern Nassau
  Details for Northern Nassau Coastal Flood Statement
Southern Nassau
  Details for Southern Nassau Coastal Flood Statement


WXM80 ListenWXM80 Stop

You find our weather info also at:

UK Metoffice

WeatherCloud

Weather Underground

Northeastern Weather Network

AWEKAS

Citizen Weather Observer Program (CWOP)

HAMweather, WeatherForYou, PWS Weather


Weather Underground History page Text

Daily Summary for May 24, 2016 Units:  English    Metric   Both
« Previous Day
Next Day »
Daily Weekly Monthly Yearly Custom
  High: Low: Average:
Temperature: 70.6 °F 56.3 °F 61.4 °F
Dew Point: 63.2 °F 53.4 °F 58.4 °F
Humidity: 96 % 73 % 90 %
Wind Speed: 8.5 mph 0.0 mph 1.2 mph
Wind Gust: 11.5 mph - -
Wind:- - West
Pressure: 29.96 in 29.82 in -
Precipitation: 0.53 in    
Historical Graphs
 
 
Tabular Data for May 24, 2016
Time Temperature Dew Point Pressure Wind Wind Speed Wind Gust Humidity Rainfall Rate (Hourly)
00:02 61.4 °F 54.1 °F 29.90 in Calm     77 % 0.00 in
00:07 61.2 °F 55.0 °F 29.90 in Calm     80 % 0.01 in
00:12 60.9 °F 55.0 °F 29.90 in SE 0.4 mph 1.2 mph 81 % 0.02 in
00:17 60.5 °F 54.6 °F 29.89 in WSW 1.1 mph 3.5 mph 81 % 0.03 in
00:22 60.2 °F 54.7 °F 29.89 in WSW 0.2 mph 1.2 mph 82 % 0.03 in
00:28 59.9 °F 54.4 °F 29.89 in Calm     82 % 0.04 in
00:33 59.6 °F 54.8 °F 29.89 in WSW 1.3 mph 2.3 mph 84 % 0.04 in
00:38 59.3 °F 54.8 °F 29.89 in NW 1.3 mph 3.5 mph 85 % 0.05 in
00:43 59.1 °F 54.6 °F 29.89 in NW 0.7 mph 2.3 mph 85 % 0.05 in
00:48 58.8 °F 54.3 °F 29.89 in NW 1.9 mph 3.5 mph 85 % 0.06 in
00:53 58.6 °F 54.4 °F 29.89 in WSW 1.4 mph 3.5 mph 86 % 0.06 in
00:58 58.4 °F 54.2 °F 29.89 in WSW 2.1 mph 4.6 mph 86 % 0.07 in
01:03 58.2 °F 54.3 °F 29.88 in SW 1.9 mph 4.6 mph 87 % 0.07 in
01:08 57.9 °F 54.1 °F 29.88 in West 1.5 mph 3.5 mph 87 % 0.08 in
01:13 57.8 °F 54.3 °F 29.88 in SW 1.5 mph 3.0 mph 88 % 0.08 in
01:19 57.6 °F 54.1 °F 29.88 in WSW 2.8 mph 3.5 mph 88 % 0.08 in
01:24 57.5 °F 54.0 °F 29.87 in WSW 2.9 mph 6.9 mph 88 % 0.07 in
01:29 57.3 °F 54.1 °F 29.86 in WNW 2.5 mph 5.0 mph 89 % 0.08 in
01:34 57.2 °F 54.0 °F 29.86 in SW 1.9 mph 3.5 mph 89 % 0.07 in
01:39 57.1 °F 54.2 °F 29.86 in SW 2.4 mph 5.8 mph 90 % 0.08 in
01:44 57.1 °F 54.2 °F 29.86 in WSW 2.4 mph 4.6 mph 90 % 0.08 in
01:49 57.0 °F 54.1 °F 29.85 in SW 2.0 mph 3.5 mph 90 % 0.07 in
01:54 56.9 °F 54.0 °F 29.85 in WSW 1.8 mph 4.6 mph 90 % 0.06 in
01:59 56.8 °F 53.9 °F 29.85 in WSW 2.9 mph 5.8 mph 90 % 0.06 in
02:04 56.7 °F 53.8 °F 29.84 in WSW 0.7 mph 3.5 mph 90 % 0.06 in
02:10 56.7 °F 53.8 °F 29.84 in West 1.7 mph 6.9 mph 90 % 0.05 in
02:15 56.6 °F 53.7 °F 29.84 in West 5.5 mph 8.1 mph 90 % 0.05 in
02:20 56.4 °F 53.5 °F 29.84 in WNW 0.9 mph 3.5 mph 90 % 0.05 in
02:25 56.4 °F 53.5 °F 29.84 in SW 1.2 mph 4.0 mph 90 % 0.05 in
02:30 56.3 °F 53.4 °F 29.84 in WSW 2.7 mph 4.6 mph 90 % 0.07 in
02:35 56.3 °F 53.7 °F 29.84 in WSW 1.3 mph 3.5 mph 91 % 0.09 in
02:40 56.3 °F 53.7 °F 29.84 in WSW 3.1 mph 4.6 mph 91 % 0.10 in
02:45 56.3 °F 54.0 °F 29.83 in SW 1.8 mph 3.5 mph 92 % 0.10 in
02:50 56.3 °F 54.0 °F 29.83 in SSW 2.1 mph 5.0 mph 92 % 0.11 in
02:55 56.3 °F 54.0 °F 29.83 in West 4.1 mph 10.4 mph 92 % 0.10 in
03:01 56.3 °F 54.0 °F 29.83 in West 3.7 mph 5.8 mph 92 % 0.10 in
03:06 56.4 °F 54.4 °F 29.83 in West 3.5 mph 6.0 mph 93 % 0.10 in
03:11 56.5 °F 54.5 °F 29.83 in WNW 2.5 mph 4.6 mph 93 % 0.09 in
03:16 56.6 °F 54.6 °F 29.83 in West 1.9 mph 6.9 mph 93 % 0.08 in
03:21 56.6 °F 54.6 °F 29.83 in NW 3.5 mph 8.1 mph 93 % 0.07 in
03:26 56.6 °F 54.6 °F 29.82 in West 3.3 mph 6.0 mph 93 % 0.06 in
03:31 56.7 °F 54.4 °F 29.82 in West 1.9 mph 6.9 mph 92 % 0.05 in
03:36 56.8 °F 54.8 °F 29.82 in WSW 2.9 mph 4.6 mph 93 % 0.03 in
03:41 56.8 °F 54.8 °F 29.83 in West 3.4 mph 4.6 mph 93 % 0.01 in
03:47 56.9 °F 54.9 °F 29.82 in NW 2.9 mph 9.2 mph 93 % 0.00 in
03:52 57.0 °F 55.0 °F 29.82 in West 2.4 mph 4.6 mph 93 % 0.00 in
03:57 57.1 °F 55.1 °F 29.82 in WSW 2.7 mph 5.8 mph 93 % 0.00 in
04:02 57.1 °F 55.1 °F 29.82 in WNW 2.0 mph 3.5 mph 93 % 0.00 in
04:07 57.1 °F 55.1 °F 29.82 in West 2.1 mph 5.0 mph 93 % 0.00 in
04:12 57.2 °F 55.2 °F 29.82 in WNW 0.8 mph 1.2 mph 93 % 0.00 in
04:17 57.2 °F 55.2 °F 29.82 in SW 1.1 mph 2.3 mph 93 % 0.00 in
04:22 57.2 °F 55.2 °F 29.82 in West 1.8 mph 5.8 mph 93 % 0.00 in
04:27 57.3 °F 55.3 °F 29.82 in WSW 1.9 mph 4.0 mph 93 % 0.00 in
04:32 57.3 °F 55.3 °F 29.82 in West 1.9 mph 4.6 mph 93 % 0.00 in
04:38 57.3 °F 55.3 °F 29.82 in WSW 1.3 mph 3.5 mph 93 % 0.00 in
04:43 57.3 °F 55.3 °F 29.83 in Calm   1.2 mph 93 % 0.00 in
04:48 57.3 °F 55.3 °F 29.83 in WSW 1.0 mph 2.3 mph 93 % 0.00 in
04:53 57.4 °F 55.4 °F 29.83 in SW 0.8 mph 2.3 mph 93 % 0.00 in
04:58 57.4 °F 55.4 °F 29.83 in Calm     93 % 0.00 in
05:03 57.4 °F 55.4 °F 29.83 in Calm     93 % 0.00 in
05:08 57.4 °F 55.4 °F 29.84 in North 0.5 mph 2.0 mph 93 % 0.00 in
05:13 57.4 °F 55.4 °F 29.84 in Calm     93 % 0.00 in
05:18 57.4 °F 55.4 °F 29.83 in North 0.2 mph 1.2 mph 93 % 0.01 in
05:23 57.4 °F 55.4 °F 29.84 in North 0.3 mph 1.2 mph 93 % 0.01 in
05:29 57.4 °F 55.4 °F 29.83 in Calm     93 % 0.01 in
05:34 57.4 °F 55.4 °F 29.83 in Calm     93 % 0.01 in
05:39 57.4 °F 55.4 °F 29.84 in Calm     93 % 0.01 in
05:44 57.4 °F 55.4 °F 29.84 in Calm   1.2 mph 93 % 0.01 in
05:49 57.3 °F 55.3 °F 29.84 in North 0.2 mph 2.3 mph 93 % 0.01 in
05:54 57.3 °F 55.3 °F 29.84 in Calm   1.2 mph 93 % 0.01 in
05:59 57.3 °F 55.3 °F 29.84 in North 0.1 mph 1.2 mph 93 % 0.01 in
06:14 57.3 °F 55.6 °F 29.84 in WNW 0.2 mph 2.3 mph 94 % 0.01 in
06:20 57.3 °F 55.6 °F 29.84 in WNW 0.5 mph 1.2 mph 94 % 0.01 in
06:25 57.3 °F 55.6 °F 29.84 in WNW 0.5 mph 1.2 mph 94 % 0.01 in
06:30 57.3 °F 55.6 °F 29.84 in WNW 0.8 mph 3.5 mph 94 % 0.01 in
06:35 57.3 °F 55.6 °F 29.85 in WNW 0.3 mph 2.3 mph 94 % 0.01 in
06:40 57.3 °F 55.6 °F 29.85 in WSW 0.2 mph 1.2 mph 94 % 0.01 in
06:45 57.3 °F 55.6 °F 29.85 in WSW 0.3 mph 1.2 mph 94 % 0.02 in
06:50 57.3 °F 55.6 °F 29.85 in WSW 0.2 mph 1.2 mph 94 % 0.02 in
06:55 57.3 °F 55.6 °F 29.86 in Calm     94 % 0.02 in
07:00 57.3 °F 55.6 °F 29.86 in Calm     94 % 0.02 in
07:05 57.3 °F 55.6 °F 29.86 in Calm     94 % 0.02 in
07:11 57.3 °F 55.6 °F 29.86 in North 0.5 mph 1.2 mph 94 % 0.02 in
07:16 57.3 °F 55.6 °F 29.86 in North 0.2 mph 1.2 mph 94 % 0.02 in
07:21 57.4 °F 55.7 °F 29.86 in Calm   1.2 mph 94 % 0.02 in
07:26 57.4 °F 55.7 °F 29.87 in North 0.4 mph 1.2 mph 94 % 0.02 in
07:31 57.4 °F 55.7 °F 29.87 in Calm     94 % 0.02 in
07:36 57.5 °F 55.8 °F 29.87 in North 0.1 mph 2.0 mph 94 % 0.02 in
07:41 57.5 °F 56.1 °F 29.87 in NW 1.5 mph 3.5 mph 95 % 0.02 in
07:46 57.6 °F 56.2 °F 29.87 in WNW 1.1 mph 3.5 mph 95 % 0.02 in
07:51 57.6 °F 56.2 °F 29.87 in Calm   2.3 mph 95 % 0.03 in
07:56 57.6 °F 56.2 °F 29.87 in NW 0.1 mph 3.5 mph 95 % 0.03 in
08:02 57.6 °F 56.2 °F 29.87 in Calm     95 % 0.05 in
08:07 57.6 °F 56.2 °F 29.87 in NW 0.4 mph 2.0 mph 95 % 0.06 in
08:12 57.6 °F 56.2 °F 29.87 in WNW 2.1 mph 3.5 mph 95 % 0.07 in
08:17 57.7 °F 56.3 °F 29.87 in WNW 1.7 mph 3.5 mph 95 % 0.07 in
08:22 57.7 °F 56.3 °F 29.87 in WNW 0.8 mph 2.3 mph 95 % 0.08 in
08:27 57.7 °F 56.3 °F 29.87 in WNW 0.2 mph 2.3 mph 95 % 0.08 in
08:32 57.8 °F 56.4 °F 29.87 in Calm   1.2 mph 95 % 0.08 in
08:37 57.8 °F 56.4 °F 29.88 in WNW 1.8 mph 3.5 mph 95 % 0.08 in
08:42 57.8 °F 56.4 °F 29.88 in WNW 0.5 mph 3.5 mph 95 % 0.08 in
08:47 57.9 °F 56.5 °F 29.88 in Calm   1.2 mph 95 % 0.07 in
08:53 57.9 °F 56.5 °F 29.88 in WNW 0.1 mph 2.3 mph 95 % 0.06 in
08:58 58.0 °F 56.6 °F 29.88 in West 1.8 mph 3.5 mph 95 % 0.05 in
09:03 58.1 °F 57.0 °F 29.88 in Calm     96 % 0.04 in
09:08 58.1 °F 57.0 °F 29.88 in NW 1.6 mph 3.5 mph 96 % 0.02 in
09:13 58.2 °F 57.1 °F 29.88 in NW 0.7 mph 2.3 mph 96 % 0.01 in
09:18 58.3 °F 57.2 °F 29.88 in West 1.2 mph 2.3 mph 96 % 0.00 in
09:23 58.4 °F 57.3 °F 29.88 in SW 2.4 mph 3.5 mph 96 % 0.00 in
09:33 59.1 °F 58.0 °F 29.88 in West 2.1 mph 3.5 mph 96 % 0.00 in
09:38 59.4 °F 58.3 °F 29.88 in WNW 1.8 mph 4.0 mph 96 % 0.00 in
09:44 59.6 °F 58.5 °F 29.88 in WSW 2.8 mph 4.0 mph 96 % 0.00 in
09:54 59.9 °F 58.8 °F 29.88 in SW 2.6 mph 5.0 mph 96 % 0.00 in
09:59 59.9 °F 58.8 °F 29.88 in NW 1.6 mph 3.5 mph 96 % 0.00 in
10:04 60.0 °F 58.9 °F 29.88 in WSW 2.8 mph 4.0 mph 96 % 0.00 in
10:09 60.0 °F 58.9 °F 29.88 in West 1.3 mph 3.5 mph 96 % 0.00 in
10:14 60.0 °F 58.6 °F 29.88 in WSW 1.2 mph 2.3 mph 95 % 0.00 in
10:19 60.1 °F 58.7 °F 29.88 in WSW 0.2 mph 2.3 mph 95 % 0.00 in
10:24 60.1 °F 58.7 °F 29.88 in WSW 0.7 mph 2.3 mph 95 % 0.00 in
10:29 60.1 °F 58.7 °F 29.88 in WSW 0.7 mph 2.3 mph 95 % 0.00 in
10:35 60.1 °F 58.7 °F 29.88 in Calm   3.5 mph 95 % 0.00 in
10:40 60.1 °F 58.7 °F 29.88 in West 2.4 mph 3.0 mph 95 % 0.00 in
10:45 60.1 °F 58.7 °F 29.88 in West 1.6 mph 3.5 mph 95 % 0.00 in
10:50 60.2 °F 58.8 °F 29.88 in WSW 1.2 mph 2.3 mph 95 % 0.00 in
10:55 60.2 °F 58.8 °F 29.88 in WSW 0.3 mph 1.2 mph 95 % 0.00 in
11:00 60.4 °F 59.0 °F 29.88 in WSW 0.7 mph 2.3 mph 95 % 0.00 in
11:05 60.7 °F 59.3 °F 29.88 in WSW 0.2 mph 1.2 mph 95 % 0.00 in
11:10 61.1 °F 59.7 °F 29.88 in NW 2.1 mph 3.5 mph 95 % 0.00 in
11:15 61.9 °F 60.7 °F 29.88 in NW 2.1 mph 3.5 mph 96 % 0.00 in
11:20 62.8 °F 61.6 °F 29.88 in WNW 0.8 mph 3.5 mph 96 % 0.00 in
11:25 63.4 °F 61.9 °F 29.88 in SW 1.3 mph 4.6 mph 95 % 0.00 in
11:31 63.8 °F 62.0 °F 29.88 in WNW 0.9 mph 2.3 mph 94 % 0.00 in
11:36 64.1 °F 61.7 °F 29.88 in West 2.6 mph 6.0 mph 92 % 0.00 in
11:41 64.4 °F 61.1 °F 29.88 in West 2.7 mph 8.1 mph 89 % 0.00 in
11:46 64.9 °F 61.6 °F 29.88 in WSW 2.9 mph 5.8 mph 89 % 0.00 in
11:51 65.4 °F 61.8 °F 29.88 in WSW 4.0 mph 6.9 mph 88 % 0.00 in
11:56 65.8 °F 62.1 °F 29.88 in NW 2.6 mph 5.0 mph 88 % 0.00 in
12:01 66.0 °F 61.4 °F 29.88 in WNW 1.9 mph 5.0 mph 85 % 0.00 in
12:06 66.2 °F 61.6 °F 29.88 in WNW 4.4 mph 6.9 mph 85 % 0.00 in
12:11 66.3 °F 61.3 °F 29.88 in West 0.6 mph 4.6 mph 84 % 0.00 in
12:16 66.4 °F 61.1 °F 29.88 in SW 3.6 mph 3.6 mph 83 % 0.00 in
12:22 66.3 °F 61.3 °F 29.88 in WSW 1.8 mph 5.8 mph 84 % 0.00 in
12:27 66.4 °F 61.8 °F 29.88 in WNW 2.0 mph 4.0 mph 85 % 0.00 in
12:37 66.5 °F 61.5 °F 29.88 in WSW 3.6 mph 6.9 mph 84 % 0.00 in
12:42 66.7 °F 62.0 °F 29.88 in West 2.2 mph 5.0 mph 85 % 0.00 in
12:47 66.9 °F 61.9 °F 29.88 in SW 2.9 mph 3.5 mph 84 % 0.00 in
12:52 67.2 °F 62.2 °F 29.88 in SW 2.5 mph 4.6 mph 84 % 0.00 in
12:57 67.9 °F 62.5 °F 29.88 in West 5.9 mph 9.2 mph 83 % 0.00 in
13:02 68.5 °F 62.8 °F 29.88 in SW 3.4 mph 6.9 mph 82 % 0.00 in
13:07 68.9 °F 63.2 °F 29.88 in West 1.5 mph 3.5 mph 82 % 0.00 in
13:13 69.3 °F 62.5 °F 29.88 in SW 5.3 mph 9.2 mph 79 % 0.00 in
13:18 69.5 °F 62.3 °F 29.88 in West 3.2 mph 5.8 mph 78 % 0.00 in
13:23 69.9 °F 62.7 °F 29.88 in WSW 4.0 mph 6.0 mph 78 % 0.00 in
13:28 70.4 °F 62.5 °F 29.87 in SSW 8.5 mph 11.5 mph 76 % 0.00 in
13:33 70.6 °F 62.7 °F 29.87 in WSW 1.5 mph 5.0 mph 76 % 0.00 in
13:38 70.6 °F 61.9 °F 29.87 in WSW 4.0 mph 5.8 mph 74 % 0.00 in
13:43 70.5 °F 61.8 °F 29.86 in SW 0.9 mph 3.5 mph 74 % 0.00 in
13:48 70.4 °F 61.7 °F 29.87 in WSW 2.7 mph 6.9 mph 74 % 0.00 in
13:53 70.2 °F 61.1 °F 29.87 in SW 5.4 mph 7.0 mph 73 % 0.00 in
13:58 70.0 °F 61.3 °F 29.87 in West 3.8 mph 6.9 mph 74 % 0.00 in
14:04 69.8 °F 61.9 °F 29.86 in West 1.9 mph 5.8 mph 76 % 0.00 in
14:09 69.7 °F 61.4 °F 29.87 in SW 2.6 mph 5.8 mph 75 % 0.00 in
14:19 69.7 °F 61.4 °F 29.87 in WSW 2.3 mph 3.5 mph 75 % 0.00 in
14:24 69.6 °F 61.7 °F 29.86 in WSW 5.2 mph 9.0 mph 76 % 0.00 in
14:29 69.6 °F 61.7 °F 29.86 in West 3.8 mph 8.0 mph 76 % 0.00 in
14:34 69.7 °F 61.8 °F 29.86 in WSW 3.3 mph 5.0 mph 76 % 0.00 in
14:39 69.7 °F 61.4 °F 29.86 in SW 2.0 mph 4.6 mph 75 % 0.00 in
14:44 69.6 °F 61.3 °F 29.87 in NW 3.4 mph 11.0 mph 75 % 0.00 in
14:49 69.4 °F 61.1 °F 29.87 in West 4.5 mph 9.2 mph 75 % 0.00 in
14:55 69.1 °F 61.2 °F 29.87 in WNW 4.0 mph 6.9 mph 76 % 0.01 in
15:00 68.0 °F 60.2 °F 29.89 in NNE 2.8 mph 9.2 mph 76 % 0.01 in
15:05 66.6 °F 60.2 °F 29.89 in NNE 5.7 mph 10.4 mph 80 % 0.06 in
15:10 65.6 °F 60.0 °F 29.89 in NNW 1.0 mph 4.6 mph 82 % 0.09 in
15:15 65.0 °F 59.7 °F 29.89 in NW 2.7 mph 5.8 mph 83 % 0.11 in
15:20 64.5 °F 59.6 °F 29.88 in NW 0.4 mph 1.2 mph 84 % 0.11 in
15:25 64.0 °F 59.4 °F 29.88 in Calm     85 % 0.12 in
15:30 63.7 °F 59.1 °F 29.88 in NW 0.6 mph 2.3 mph 85 % 0.12 in
15:40 63.1 °F 59.5 °F 29.88 in NW 0.9 mph 1.2 mph 88 % 0.14 in
15:46 62.9 °F 59.6 °F 29.88 in NW 0.6 mph 2.3 mph 89 % 0.14 in
15:51 62.9 °F 59.9 °F 29.88 in NW 0.7 mph 2.3 mph 90 % 0.13 in
15:56 63.0 °F 60.3 °F 29.88 in NW 0.4 mph 1.2 mph 91 % 0.13 in
16:01 63.4 °F 61.0 °F 29.88 in NNW 0.7 mph 2.3 mph 92 % 0.12 in
16:06 63.6 °F 61.2 °F 29.88 in NNW 0.1 mph 1.2 mph 92 % 0.06 in
16:11 64.0 °F 61.9 °F 29.88 in NNW 0.3 mph 2.3 mph 93 % 0.04 in
16:16 64.5 °F 62.4 °F 29.88 in NNW 0.6 mph 2.3 mph 93 % 0.03 in
16:21 64.9 °F 62.5 °F 29.89 in NNW 0.5 mph 2.3 mph 92 % 0.03 in
16:26 65.3 °F 62.9 °F 29.89 in NNW 0.8 mph 1.2 mph 92 % 0.02 in
16:31 65.5 °F 62.5 °F 29.89 in NNW 0.1 mph 1.0 mph 90 % 0.01 in
16:37 65.7 °F 62.4 °F 29.89 in NNW 0.6 mph 3.0 mph 89 % 0.01 in
16:42 65.8 °F 62.1 °F 29.89 in NNW 0.4 mph   88 % 0.00 in
16:47 65.8 °F 62.1 °F 29.89 in NNW 1.6 mph 3.5 mph 88 % 0.00 in
16:52 65.8 °F 62.1 °F 29.89 in NNW 0.7 mph 2.3 mph 88 % 0.00 in
16:57 65.8 °F 61.8 °F 29.89 in NNW 2.4 mph 4.0 mph 87 % 0.00 in
17:02 65.9 °F 62.2 °F 29.89 in NNW 0.8 mph 3.0 mph 88 % 0.00 in
17:07 65.8 °F 61.8 °F 29.89 in NNE 2.9 mph 4.6 mph 87 % 0.00 in
17:12 65.7 °F 61.7 °F 29.89 in Calm   1.2 mph 87 % 0.00 in
17:17 65.7 °F 61.7 °F 29.89 in Calm     87 % 0.00 in
17:22 65.6 °F 61.6 °F 29.89 in Calm     87 % 0.00 in
17:28 65.5 °F 61.5 °F 29.89 in Calm     87 % 0.00 in
17:38 65.3 °F 61.7 °F 29.89 in Calm     88 % 0.00 in
17:43 65.2 °F 61.9 °F 29.89 in Calm     89 % 0.00 in
17:48 65.1 °F 61.8 °F 29.89 in SE 0.1 mph 1.2 mph 89 % 0.00 in
17:53 65.0 °F 61.7 °F 29.89 in SE 0.2 mph 1.2 mph 89 % 0.00 in
17:58 65.0 °F 61.7 °F 29.90 in Calm     89 % 0.00 in
18:03 65.0 °F 61.7 °F 29.90 in Calm     89 % 0.00 in
18:08 65.0 °F 62.0 °F 29.90 in Calm     90 % 0.00 in
18:13 65.0 °F 62.0 °F 29.90 in Calm     90 % 0.00 in
18:19 64.9 °F 61.3 °F 29.90 in Calm   1.2 mph 88 % 0.00 in
18:24 64.9 °F 61.3 °F 29.90 in Calm     88 % 0.00 in
18:29 64.8 °F 61.2 °F 29.90 in Calm     88 % 0.00 in
18:34 64.7 °F 60.7 °F 29.90 in Calm   1.2 mph 87 % 0.00 in
18:39 64.7 °F 60.7 °F 29.91 in Calm   1.2 mph 87 % 0.00 in
18:44 64.6 °F 61.0 °F 29.91 in Calm     88 % 0.00 in
18:49 64.5 °F 60.9 °F 29.91 in Calm     88 % 0.00 in
18:54 64.5 °F 60.9 °F 29.90 in Calm     88 % 0.00 in
18:59 64.4 °F 60.8 °F 29.90 in Calm   1.2 mph 88 % 0.00 in
19:08 64.2 °F 60.6 °F 29.91 in Calm     88 % 0.00 in
19:12 64.1 °F 60.5 °F 29.91 in Calm     88 % 0.00 in
19:17 64.0 °F 60.7 °F 29.92 in Calm     89 % 0.00 in
19:22 63.9 °F 60.6 °F 29.92 in Calm     89 % 0.00 in
19:27 63.8 °F 60.5 °F 29.92 in SE 0.2 mph 1.2 mph 89 % 0.00 in
19:33 63.7 °F 60.7 °F 29.92 in SE 0.1 mph 1.2 mph 90 % 0.00 in
19:38 63.6 °F 60.6 °F 29.92 in Calm     90 % 0.00 in
19:43 63.5 °F 60.5 °F 29.92 in Calm   1.2 mph 90 % 0.00 in
19:48 63.4 °F 60.7 °F 29.92 in SE 0.2 mph 1.2 mph 91 % 0.00 in
19:58 63.2 °F 60.5 °F 29.92 in Calm     91 % 0.00 in
20:03 63.2 °F 60.5 °F 29.91 in SE 0.8 mph 2.0 mph 91 % 0.00 in
20:08 63.1 °F 60.4 °F 29.91 in SE 0.8 mph 1.2 mph 91 % 0.00 in
20:13 63.0 °F 60.6 °F 29.92 in SE 0.1 mph 1.0 mph 92 % 0.00 in
20:18 62.9 °F 60.5 °F 29.92 in Calm   1.2 mph 92 % 0.00 in
20:24 62.8 °F 60.4 °F 29.92 in Calm     92 % 0.00 in
20:29 62.7 °F 60.3 °F 29.92 in Calm     92 % 0.00 in
20:34 62.6 °F 60.2 °F 29.94 in SE 1.5 mph 2.3 mph 92 % 0.00 in
20:39 62.4 °F 60.0 °F 29.94 in Calm     92 % 0.01 in
20:44 62.4 °F 60.0 °F 29.93 in Calm     92 % 0.01 in
20:49 62.3 °F 59.9 °F 29.93 in SE 0.3 mph 1.2 mph 92 % 0.01 in
20:54 62.2 °F 60.2 °F 29.93 in Calm     93 % 0.01 in
20:59 62.2 °F 60.2 °F 29.93 in Calm   1.2 mph 93 % 0.01 in
21:04 62.1 °F 60.1 °F 29.94 in Calm   1.2 mph 93 % 0.01 in
21:09 62.1 °F 60.1 °F 29.94 in Calm     93 % 0.01 in
21:15 62.0 °F 60.0 °F 29.94 in Calm     93 % 0.01 in
21:20 61.9 °F 59.9 °F 29.93 in SSE 2.8 mph 3.5 mph 93 % 0.01 in
21:25 61.8 °F 59.8 °F 29.94 in Calm   1.2 mph 93 % 0.01 in
21:30 61.8 °F 59.8 °F 29.94 in Calm     93 % 0.01 in
21:35 61.7 °F 59.7 °F 29.94 in Calm     93 % 0.01 in
21:40 61.6 °F 59.6 °F 29.95 in Calm     93 % 0.00 in
21:45 61.6 °F 59.6 °F 29.95 in Calm     93 % 0.00 in
21:50 61.6 °F 59.9 °F 29.94 in Calm   1.2 mph 94 % 0.01 in
21:55 61.6 °F 59.9 °F 29.93 in SSE 1.8 mph 3.5 mph 94 % 0.01 in
22:00 61.6 °F 59.9 °F 29.94 in WSW 1.3 mph 3.5 mph 94 % 0.01 in
22:06 61.6 °F 59.9 °F 29.94 in Calm     94 % 0.01 in
22:11 61.6 °F 59.9 °F 29.95 in WSW 0.2 mph 2.3 mph 94 % 0.01 in
22:16 61.5 °F 60.1 °F 29.94 in South 0.8 mph 3.5 mph 95 % 0.01 in
22:21 61.5 °F 60.1 °F 29.95 in Calm     95 % 0.01 in
22:26 61.5 °F 60.1 °F 29.96 in Calm     95 % 0.01 in
22:31 61.4 °F 59.7 °F 29.95 in South 0.1 mph   94 % 0.01 in
22:36 61.3 °F 59.6 °F 29.96 in Calm     94 % 0.02 in
22:41 61.2 °F 59.5 °F 29.95 in Calm     94 % 0.02 in
22:46 61.1 °F 59.4 °F 29.96 in Calm     94 % 0.02 in
22:51 60.9 °F 59.2 °F 29.96 in Calm     94 % 0.01 in
22:57 60.8 °F 59.1 °F 29.96 in Calm     94 % 0.01 in
23:02 60.7 °F 59.0 °F 29.95 in Calm     94 % 0.01 in
23:07 60.6 °F 58.9 °F 29.95 in Calm     94 % 0.01 in
23:12 60.5 °F 58.8 °F 29.96 in Calm     94 % 0.01 in
23:17 60.4 °F 58.7 °F 29.96 in Calm   1.2 mph 94 % 0.01 in
23:22 60.3 °F 58.6 °F 29.96 in Calm     94 % 0.01 in
23:27 60.2 °F 58.5 °F 29.96 in Calm   1.2 mph 94 % 0.01 in
23:37 60.1 °F 58.4 °F 29.96 in Calm     94 % 0.00 in
23:42 60.0 °F 58.3 °F 29.96 in Calm     94 % 0.00 in
23:53 60.0 °F 58.3 °F 29.96 in Calm   1.2 mph 94 % 0.00 in
23:58 59.9 °F 58.2 °F 29.96 in East 0.5 mph 1.2 mph 94 % 0.00 in
Crab Meadow Weather
Compliments of Weather Underground - 3 mb

Script developed by  Jim McMurry - jmcmurry@mwt.net Adapted for the template by  Wim van der Kuil - Leuven-Template.eu

Astronomy: February 1865 is the only month recorded in history not to have a full moon.